Brandon, Nebraska
Current Conditions -  °F | °C
As of 2:35 AM on Friday 24 Oct 2014 (Local Time) from KOGA Reporting Station
Clear Clear  
Wind Chill: 39°   Ceiling: Unl
Heat Index: 39°   Visibility: 10mi
Dew Point: 36°   Wind: 3mph
Humidity: 88%   Direction: 280°W
Pressure: 30.01"   Gusts: NA
Location:  40.8511°N, 101.706°W
Report Text: KOGA 240835Z AUTO 28003KT 10SM CLR 04/02 A3001 RMK AO2 T00390020
Loading
Personal Weather Stations






























Interactive Weather Map
Tropical Storm Tracking
New forecast layout! Learn more

10-Day Weather Forecast

Advertisements
Track Severe Weather on mobile